sensor_id;sensor_type;location;lat;lon;timestamp;pressure;altitude;pressure_sealevel;temperature;humidity
47985;BME280;33753;52.912;-7.342;2022-07-04T00:01:50;100889.16;;;13.03;100.00
47985;BME280;33753;52.912;-7.342;2022-07-04T00:04:18;100888.81;;;13.06;100.00
47985;BME280;33753;52.912;-7.342;2022-07-04T00:06:46;100890.03;;;13.03;100.00
47985;BME280;33753;52.912;-7.342;2022-07-04T00:09:14;100890.16;;;13.02;100.00
47985;BME280;33753;52.912;-7.342;2022-07-04T00:11:42;100892.41;;;12.98;100.00
47985;BME280;33753;52.912;-7.342;2022-07-04T00:14:10;100886.84;;;12.91;100.00
47985;BME280;33753;52.912;-7.342;2022-07-04T00:16:40;100893.34;;;12.82;100.00
47985;BME280;33753;52.912;-7.342;2022-07-04T00:19:08;100883.63;;;12.88;100.00
47985;BME280;33753;52.912;-7.342;2022-07-04T00:21:36;100886.19;;;12.89;100.00
47985;BME280;33753;52.912;-7.342;2022-07-04T00:24:04;100886.84;;;12.91;100.00
47985;BME280;33753;52.912;-7.342;2022-07-04T00:26:33;100879.88;;;12.89;100.00
47985;BME280;33753;52.912;-7.342;2022-07-04T00:29:02;100872.97;;;12.86;100.00
47985;BME280;33753;52.912;-7.342;2022-07-04T00:31:30;100872.44;;;12.83;100.00
47985;BME280;33753;52.912;-7.342;2022-07-04T00:33:59;100878.72;;;12.83;100.00
47985;BME280;33753;52.912;-7.342;2022-07-04T00:36:27;100874.16;;;12.84;100.00
47985;BME280;33753;52.912;-7.342;2022-07-04T00:38:56;100880.78;;;12.81;100.00
47985;BME280;33753;52.912;-7.342;2022-07-04T00:41:24;100882.47;;;12.82;100.00
47985;BME280;33753;52.912;-7.342;2022-07-04T00:43:59;100882.47;;;12.82;100.00
47985;BME280;33753;52.912;-7.342;2022-07-04T00:46:38;100877.03;;;12.82;100.00
47985;BME280;33753;52.912;-7.342;2022-07-04T00:49:09;100878.06;;;12.81;100.00
47985;BME280;33753;52.912;-7.342;2022-07-04T00:51:38;100883.00;;;12.77;100.00
47985;BME280;33753;52.912;-7.342;2022-07-04T00:54:07;100876.72;;;12.77;100.00
47985;BME280;33753;52.912;-7.342;2022-07-04T00:56:36;100874.19;;;12.75;100.00
47985;BME280;33753;52.912;-7.342;2022-07-04T00:59:04;100877.06;;;12.74;100.00
47985;BME280;33753;52.912;-7.342;2022-07-04T01:01:33;100870.31;;;12.61;100.00
47985;BME280;33753;52.912;-7.342;2022-07-04T01:04:02;100875.75;;;12.61;100.00
47985;BME280;33753;52.912;-7.342;2022-07-04T01:06:32;100868.78;;;12.67;100.00
47985;BME280;33753;52.912;-7.342;2022-07-04T01:09:01;100873.84;;;12.70;100.00
47985;BME280;33753;52.912;-7.342;2022-07-04T01:11:29;100873.69;;;12.72;100.00
47985;BME280;33753;52.912;-7.342;2022-07-04T01:13:57;100874.53;;;12.72;100.00
47985;BME280;33753;52.912;-7.342;2022-07-04T01:16:32;100876.41;;;12.72;100.00
47985;BME280;33753;52.912;-7.342;2022-07-04T01:19:01;100874.34;;;12.74;100.00
47985;BME280;33753;52.912;-7.342;2022-07-04T01:21:31;100876.72;;;12.77;100.00
47985;BME280;33753;52.912;-7.342;2022-07-04T01:24:00;100868.41;;;12.78;100.00
47985;BME280;33753;52.912;-7.342;2022-07-04T01:26:28;100875.69;;;12.78;100.00
47985;BME280;33753;52.912;-7.342;2022-07-04T01:29:23;100872.81;;;12.79;100.00
47985;BME280;33753;52.912;-7.342;2022-07-04T01:31:51;100860.06;;;12.80;100.00
47985;BME280;33753;52.912;-7.342;2022-07-04T01:34:20;100855.53;;;12.72;100.00
47985;BME280;33753;52.912;-7.342;2022-07-04T01:36:50;100860.97;;;12.72;100.00
47985;BME280;33753;52.912;-7.342;2022-07-04T01:39:18;100865.56;;;12.72;100.00
47985;BME280;33753;52.912;-7.342;2022-07-04T01:41:46;100862.50;;;12.67;100.00
47985;BME280;33753;52.912;-7.342;2022-07-04T01:44:14;100863.00;;;12.70;100.00
47985;BME280;33753;52.912;-7.342;2022-07-04T01:46:43;100866.56;;;12.71;100.00
47985;BME280;33753;52.912;-7.342;2022-07-04T01:49:12;100862.16;;;12.70;100.00
47985;BME280;33753;52.912;-7.342;2022-07-04T01:51:43;100862.16;;;12.70;100.00
47985;BME280;33753;52.912;-7.342;2022-07-04T01:54:13;100873.38;;;12.67;100.00
47985;BME280;33753;52.912;-7.342;2022-07-04T01:56:41;100867.28;;;12.65;100.00
47985;BME280;33753;52.912;-7.342;2022-07-04T01:59:10;100869.31;;;12.62;100.00
47985;BME280;33753;52.912;-7.342;2022-07-04T02:01:38;100868.28;;;12.64;100.00
47985;BME280;33753;52.912;-7.342;2022-07-04T02:04:06;100864.22;;;12.68;100.00
47985;BME280;33753;52.912;-7.342;2022-07-04T02:06:35;100871.00;;;12.64;100.00
47985;BME280;33753;52.912;-7.342;2022-07-04T02:09:04;100868.28;;;12.64;100.00
47985;BME280;33753;52.912;-7.342;2022-07-04T02:11:46;100873.72;;;12.64;100.00
47985;BME280;33753;52.912;-7.342;2022-07-04T02:14:31;100869.66;;;12.59;100.00
47985;BME280;33753;52.912;-7.342;2022-07-04T02:17:00;100874.06;;;12.60;100.00
47985;BME280;33753;52.912;-7.342;2022-07-04T02:19:29;100868.66;;;12.60;100.00
47985;BME280;33753;52.912;-7.342;2022-07-04T02:21:59;100870.31;;;12.61;100.00
47985;BME280;33753;52.912;-7.342;2022-07-04T02:24:27;100870.00;;;12.65;100.00
47985;BME280;33753;52.912;-7.342;2022-07-04T02:26:57;100863.53;;;12.66;100.00
47985;BME280;33753;52.912;-7.342;2022-07-04T02:29:25;100859.13;;;12.65;100.00
47985;BME280;33753;52.912;-7.342;2022-07-04T02:31:54;100857.44;;;12.64;100.00
47985;BME280;33753;52.912;-7.342;2022-07-04T02:34:22;100859.28;;;12.63;100.00
47985;BME280;33753;52.912;-7.342;2022-07-04T02:36:50;100851.13;;;12.63;100.00
47985;BME280;33753;52.912;-7.342;2022-07-04T02:39:19;100848.78;;;12.60;100.00
47985;BME280;33753;52.912;-7.342;2022-07-04T02:41:47;100866.41;;;12.64;100.00
47985;BME280;33753;52.912;-7.342;2022-07-04T02:44:24;100857.78;;;12.60;100.00
47985;BME280;33753;52.912;-7.342;2022-07-04T02:46:52;100858.81;;;12.51;100.00
47985;BME280;33753;52.912;-7.342;2022-07-04T02:49:21;100860.16;;;12.55;100.00
47985;BME280;33753;52.912;-7.342;2022-07-04T02:51:49;100859.81;;;12.58;100.00
47985;BME280;33753;52.912;-7.342;2022-07-04T02:54:17;100857.47;;;12.55;100.00
47985;BME280;33753;52.912;-7.342;2022-07-04T02:56:45;100866.78;;;12.53;100.00
47985;BME280;33753;52.912;-7.342;2022-07-04T02:59:14;100864.59;;;12.56;100.00
47985;BME280;33753;52.912;-7.342;2022-07-04T03:01:45;100860.16;;;12.55;100.00
47985;BME280;33753;52.912;-7.342;2022-07-04T03:04:14;100861.88;;;12.56;100.00
47985;BME280;33753;52.912;-7.342;2022-07-04T03:06:42;100861.88;;;12.56;100.00
47985;BME280;33753;52.912;-7.342;2022-07-04T03:09:11;100858.47;;;12.54;100.00
47985;BME280;33753;52.912;-7.342;2022-07-04T03:11:39;100865.94;;;12.52;100.00
47985;BME280;33753;52.912;-7.342;2022-07-04T03:14:07;100862.41;;;12.52;100.00
47985;BME280;33753;52.912;-7.342;2022-07-04T03:16:35;100855.09;;;12.52;100.00
47985;BME280;33753;52.912;-7.342;2022-07-04T03:19:05;100857.84;;;12.44;100.00
47985;BME280;33753;52.912;-7.342;2022-07-04T03:21:33;100862.25;;;12.45;100.00
47985;BME280;33753;52.912;-7.342;2022-07-04T03:24:01;100859.88;;;12.42;100.00
47985;BME280;33753;52.912;-7.342;2022-07-04T03:26:31;100857.16;;;12.42;100.00
47985;BME280;33753;52.912;-7.342;2022-07-04T03:29:00;100851.94;;;12.40;100.00
47985;BME280;33753;52.912;-7.342;2022-07-04T03:31:29;100857.84;;;12.36;100.00
47985;BME280;33753;52.912;-7.342;2022-07-04T03:33:57;100840.19;;;12.40;100.00
47985;BME280;33753;52.912;-7.342;2022-07-04T03:36:27;100850.53;;;12.44;100.00
47985;BME280;33753;52.912;-7.342;2022-07-04T03:38:55;100845.28;;;12.43;100.00
47985;BME280;33753;52.912;-7.342;2022-07-04T03:41:23;100850.38;;;12.46;100.00
47985;BME280;33753;52.912;-7.342;2022-07-04T03:43:52;100853.75;;;12.48;100.00
47985;BME280;33753;52.912;-7.342;2022-07-04T03:46:20;100856.13;;;12.51;100.00
47985;BME280;33753;52.912;-7.342;2022-07-04T03:48:48;100870.03;;;12.48;100.00
47985;BME280;33753;52.912;-7.342;2022-07-04T03:51:16;100859.19;;;12.48;100.00
47985;BME280;33753;52.912;-7.342;2022-07-04T03:53:46;100864.25;;;12.51;100.00
47985;BME280;33753;52.912;-7.342;2022-07-04T03:56:14;100857.47;;;12.47;100.00
47985;BME280;33753;52.912;-7.342;2022-07-04T03:58:43;100854.59;;;12.49;100.00
47985;BME280;33753;52.912;-7.342;2022-07-04T04:01:15;100855.47;;;12.49;100.00
47985;BME280;33753;52.912;-7.342;2022-07-04T04:04:14;100859.84;;;12.50;100.00
47985;BME280;33753;52.912;-7.342;2022-07-04T04:06:59;100856.47;;;12.48;100.00
47985;BME280;33753;52.912;-7.342;2022-07-04T04:09:29;100856.47;;;12.48;100.00
47985;BME280;33753;52.912;-7.342;2022-07-04T04:11:57;100853.75;;;12.48;100.00
47985;BME280;33753;52.912;-7.342;2022-07-04T04:14:25;100858.34;;;12.48;100.00
47985;BME280;33753;52.912;-7.342;2022-07-04T04:16:54;100861.25;;;12.46;100.00
47985;BME280;33753;52.912;-7.342;2022-07-04T04:19:22;100853.75;;;12.48;100.00
47985;BME280;33753;52.912;-7.342;2022-07-04T04:21:50;100852.75;;;12.49;100.00
47985;BME280;33753;52.912;-7.342;2022-07-04T04:24:18;100853.41;;;12.51;100.00
47985;BME280;33753;52.912;-7.342;2022-07-04T04:26:48;100855.47;;;12.49;100.00
47985;BME280;33753;52.912;-7.342;2022-07-04T04:29:16;100853.41;;;12.51;100.00
47985;BME280;33753;52.912;-7.342;2022-07-04T04:31:44;100853.41;;;12.51;100.00
47985;BME280;33753;52.912;-7.342;2022-07-04T04:34:13;100857.81;;;12.52;100.00
47985;BME280;33753;52.912;-7.342;2022-07-04T04:36:41;100851.69;;;12.50;100.00
47985;BME280;33753;52.912;-7.342;2022-07-04T04:39:09;100855.75;;;12.54;100.00
47985;BME280;33753;52.912;-7.342;2022-07-04T04:41:37;100858.47;;;12.54;100.00
47985;BME280;33753;52.912;-7.342;2022-07-04T04:44:06;100854.09;;;12.53;100.00
47985;BME280;33753;52.912;-7.342;2022-07-04T04:46:34;100860.16;;;12.55;100.00
47985;BME280;33753;52.912;-7.342;2022-07-04T04:49:03;100870.69;;;12.58;100.00
47985;BME280;33753;52.912;-7.342;2022-07-04T04:51:31;100865.59;;;12.55;100.00
47985;BME280;33753;52.912;-7.342;2022-07-04T04:53:59;100871.03;;;12.55;100.00
47985;BME280;33753;52.912;-7.342;2022-07-04T04:56:27;100864.75;;;12.55;100.00
47985;BME280;33753;52.912;-7.342;2022-07-04T04:58:56;100875.25;;;12.58;100.00
47985;BME280;33753;52.912;-7.342;2022-07-04T05:01:25;100879.81;;;12.57;100.00
47985;BME280;33753;52.912;-7.342;2022-07-04T05:04:07;100883.41;;;12.58;100.00
47985;BME280;33753;52.912;-7.342;2022-07-04T05:06:36;100883.06;;;12.61;100.00
47985;BME280;33753;52.912;-7.342;2022-07-04T05:09:04;100876.97;;;12.59;100.00
47985;BME280;33753;52.912;-7.342;2022-07-04T05:11:33;100875.09;;;12.59;100.00
47985;BME280;33753;52.912;-7.342;2022-07-04T05:14:01;100873.91;;;12.62;100.00
47985;BME280;33753;52.912;-7.342;2022-07-04T05:16:31;100873.72;;;12.64;100.00
47985;BME280;33753;52.912;-7.342;2022-07-04T05:19:00;100880.84;;;12.65;100.00
47985;BME280;33753;52.912;-7.342;2022-07-04T05:21:28;100885.75;;;12.69;100.00
47985;BME280;33753;52.912;-7.342;2022-07-04T05:23:57;100887.59;;;12.69;100.00
47985;BME280;33753;52.912;-7.342;2022-07-04T05:26:27;100888.09;;;12.72;100.00
47985;BME280;33753;52.912;-7.342;2022-07-04T05:28:56;100900.16;;;12.70;100.00
47985;BME280;33753;52.912;-7.342;2022-07-04T05:31:24;100897.59;;;12.76;100.00
47985;BME280;33753;52.912;-7.342;2022-07-04T05:33:54;100896.41;;;12.79;100.00
47985;BME280;33753;52.912;-7.342;2022-07-04T05:36:22;100892.28;;;12.83;100.00
47985;BME280;33753;52.912;-7.342;2022-07-04T05:38:55;100886.19;;;12.89;100.00
47985;BME280;33753;52.912;-7.342;2022-07-04T05:41:23;100887.19;;;12.88;100.00
47985;BME280;33753;52.912;-7.342;2022-07-04T05:43:52;100893.31;;;12.90;100.00
47985;BME280;33753;52.912;-7.342;2022-07-04T05:46:24;100898.06;;;12.88;100.00
47985;BME280;33753;52.912;-7.342;2022-07-04T05:48:55;100902.75;;;12.94;100.00
47985;BME280;33753;52.912;-7.342;2022-07-04T05:51:23;100903.13;;;12.91;100.00
47985;BME280;33753;52.912;-7.342;2022-07-04T05:53:51;100904.78;;;13.01;100.00
47985;BME280;33753;52.912;-7.342;2022-07-04T05:56:19;100904.63;;;13.02;100.00
47985;BME280;33753;52.912;-7.342;2022-07-04T05:58:48;100905.78;;;13.08;100.00
47985;BME280;33753;52.912;-7.342;2022-07-04T06:01:16;100910.19;;;13.09;100.00
47985;BME280;33753;52.912;-7.342;2022-07-04T06:03:44;100906.59;;;13.17;100.00
47985;BME280;33753;52.912;-7.342;2022-07-04T06:06:14;100911.84;;;13.18;100.00
47985;BME280;33753;52.912;-7.342;2022-07-04T06:08:43;100910.47;;;13.22;100.00
47985;BME280;33753;52.912;-7.342;2022-07-04T06:11:14;100898.88;;;13.28;100.00
47985;BME280;33753;52.912;-7.342;2022-07-04T06:13:44;100900.22;;;13.32;100.00
47985;BME280;33753;52.912;-7.342;2022-07-04T06:16:13;100904.63;;;13.42;100.00
47985;BME280;33753;52.912;-7.342;2022-07-04T06:18:41;100909.31;;;13.48;100.00
47985;BME280;33753;52.912;-7.342;2022-07-04T06:21:09;100906.91;;;13.53;100.00
47985;BME280;33753;52.912;-7.342;2022-07-04T06:23:39;100915.38;;;13.58;100.00
47985;BME280;33753;52.912;-7.342;2022-07-04T06:26:07;100920.44;;;13.61;100.00
47985;BME280;33753;52.912;-7.342;2022-07-04T06:28:35;100920.38;;;13.70;100.00
47985;BME280;33753;52.912;-7.342;2022-07-04T06:31:13;100918.63;;;13.77;100.00
47985;BME280;33753;52.912;-7.342;2022-07-04T06:33:42;100916.22;;;13.82;100.00
47985;BME280;33753;52.912;-7.342;2022-07-04T06:36:27;100919.22;;;13.87;100.00
47985;BME280;33753;52.912;-7.342;2022-07-04T06:38:57;100917.84;;;13.91;100.00
47985;BME280;33753;52.912;-7.342;2022-07-04T06:41:29;100923.88;;;14.02;100.00
47985;BME280;33753;52.912;-7.342;2022-07-04T06:43:57;100925.25;;;14.21;100.00
47985;BME280;33753;52.912;-7.342;2022-07-04T06:46:25;100926.97;;;14.37;100.00
47985;BME280;33753;52.912;-7.342;2022-07-04T06:48:54;100926.91;;;14.45;100.00
47985;BME280;33753;52.912;-7.342;2022-07-04T06:51:22;100919.38;;;14.47;100.00
47985;BME280;33753;52.912;-7.342;2022-07-04T06:53:51;100923.31;;;14.44;100.00
47985;BME280;33753;52.912;-7.342;2022-07-04T06:56:21;100922.16;;;14.39;100.00
47985;BME280;33753;52.912;-7.342;2022-07-04T06:58:49;100918.72;;;14.45;100.00
47985;BME280;33753;52.912;-7.342;2022-07-04T07:01:17;100925.84;;;14.31;100.00
47985;BME280;33753;52.912;-7.342;2022-07-04T07:03:46;100928.09;;;14.42;100.00
47985;BME280;33753;52.912;-7.342;2022-07-04T07:06:15;100919.44;;;14.39;100.00
47985;BME280;33753;52.912;-7.342;2022-07-04T07:08:43;100928.56;;;14.31;100.00
47985;BME280;33753;52.912;-7.342;2022-07-04T07:11:11;100922.16;;;14.39;100.00
47985;BME280;33753;52.912;-7.342;2022-07-04T07:13:47;100919.75;;;14.44;100.00
47985;BME280;33753;52.912;-7.342;2022-07-04T07:16:17;100924.44;;;14.50;100.00
47985;BME280;33753;52.912;-7.342;2022-07-04T07:18:45;100925.13;;;14.52;100.00
47985;BME280;33753;52.912;-7.342;2022-07-04T07:21:15;100925.34;;;14.65;100.00
47985;BME280;33753;52.912;-7.342;2022-07-04T07:23:43;100921.00;;;14.86;100.00
47985;BME280;33753;52.912;-7.342;2022-07-04T07:26:12;100930.59;;;14.97;100.00
47985;BME280;33753;52.912;-7.342;2022-07-04T07:28:40;100920.25;;;15.07;100.00
47985;BME280;33753;52.912;-7.342;2022-07-04T07:31:10;100922.56;;;15.25;100.00
47985;BME280;33753;52.912;-7.342;2022-07-04T07:33:38;100921.06;;;15.37;100.00
47985;BME280;33753;52.912;-7.342;2022-07-04T07:36:07;100923.59;;;15.39;100.00
47985;BME280;33753;52.912;-7.342;2022-07-04T07:38:35;100923.09;;;15.35;100.00
47985;BME280;33753;52.912;-7.342;2022-07-04T07:41:03;100913.91;;;15.36;100.00
47985;BME280;33753;52.912;-7.342;2022-07-04T07:43:37;100913.50;;;15.40;100.00
47985;BME280;33753;52.912;-7.342;2022-07-04T07:46:07;100919.41;;;15.43;100.00
47985;BME280;33753;52.912;-7.342;2022-07-04T07:49:15;100917.28;;;15.60;100.00
47985;BME280;33753;52.912;-7.342;2022-07-04T07:51:43;100920.56;;;15.70;100.00
47985;BME280;33753;52.912;-7.342;2022-07-04T07:54:12;100921.31;;;16.01;100.00
47985;BME280;33753;52.912;-7.342;2022-07-04T07:56:43;100910.34;;;16.22;100.00
47985;BME280;33753;52.912;-7.342;2022-07-04T07:59:11;100916.09;;;16.34;100.00
47985;BME280;33753;52.912;-7.342;2022-07-04T08:01:39;100923.59;;;16.54;100.00
47985;BME280;33753;52.912;-7.342;2022-07-04T08:04:08;100917.34;;;16.60;100.00
47985;BME280;33753;52.912;-7.342;2022-07-04T08:06:55;100912.59;;;16.75;100.00
47985;BME280;33753;52.912;-7.342;2022-07-04T08:09:43;100919.84;;;16.90;100.00
47985;BME280;33753;52.912;-7.342;2022-07-04T08:12:12;100920.31;;;17.00;100.00
47985;BME280;33753;52.912;-7.342;2022-07-04T08:14:40;100922.63;;;16.97;100.00
47985;BME280;33753;52.912;-7.342;2022-07-04T08:17:08;100924.69;;;16.88;100.00
47985;BME280;33753;52.912;-7.342;2022-07-04T08:19:38;100919.91;;;16.97;100.00
47985;BME280;33753;52.912;-7.342;2022-07-04T08:22:08;100922.34;;;16.85;100.00
47985;BME280;33753;52.912;-7.342;2022-07-04T08:24:42;100925.00;;;17.06;100.00
47985;BME280;33753;52.912;-7.342;2022-07-04T08:27:10;100933.91;;;17.28;100.00
47985;BME280;33753;52.912;-7.342;2022-07-04T08:29:39;100925.13;;;17.53;100.00
47985;BME280;33753;52.912;-7.342;2022-07-04T08:32:08;100926.28;;;17.86;100.00
47985;BME280;33753;52.912;-7.342;2022-07-04T08:34:37;100928.22;;;18.05;100.00
47985;BME280;33753;52.912;-7.342;2022-07-04T08:37:05;100919.38;;;18.03;100.00
47985;BME280;33753;52.912;-7.342;2022-07-04T08:39:35;100920.22;;;18.10;100.00
47985;BME280;33753;52.912;-7.342;2022-07-04T08:42:05;100918.13;;;18.12;100.00
47985;BME280;33753;52.912;-7.342;2022-07-04T08:44:33;100911.38;;;18.35;100.00
47985;BME280;33753;52.912;-7.342;2022-07-04T08:47:06;100923.34;;;18.47;100.00
47985;BME280;33753;52.912;-7.342;2022-07-04T08:49:42;100913.66;;;18.58;100.00
47985;BME280;33753;52.912;-7.342;2022-07-04T08:52:12;100920.19;;;18.64;100.00
47985;BME280;33753;52.912;-7.342;2022-07-04T08:54:42;100913.03;;;18.56;100.00
47985;BME280;33753;52.912;-7.342;2022-07-04T08:57:28;100921.88;;;18.65;100.00
47985;BME280;33753;52.912;-7.342;2022-07-04T09:00:14;100913.59;;;18.85;100.00
47985;BME280;33753;52.912;-7.342;2022-07-04T09:02:42;100915.06;;;19.01;100.00
47985;BME280;33753;52.912;-7.342;2022-07-04T09:05:11;100918.81;;;19.07;100.00
47985;BME280;33753;52.912;-7.342;2022-07-04T09:07:39;100922.03;;;18.97;100.00
47985;BME280;33753;52.912;-7.342;2022-07-04T09:10:09;100917.56;;;19.09;100.00
47985;BME280;33753;52.912;-7.342;2022-07-04T09:12:37;100921.84;;;18.78;100.00
47985;BME280;33753;52.912;-7.342;2022-07-04T09:15:25;100920.59;;;18.88;100.00
47985;BME280;33753;52.912;-7.342;2022-07-04T09:17:54;100931.13;;;18.91;100.00
47985;BME280;33753;52.912;-7.342;2022-07-04T09:20:22;100927.72;;;18.95;100.00
47985;BME280;33753;52.912;-7.342;2022-07-04T09:22:51;100934.69;;;18.98;100.00
47985;BME280;33753;52.912;-7.342;2022-07-04T09:25:23;100929.72;;;19.20;100.00
47985;BME280;33753;52.912;-7.342;2022-07-04T09:27:52;100926.72;;;19.35;100.00
47985;BME280;33753;52.912;-7.342;2022-07-04T09:30:21;100937.38;;;19.11;100.00
47985;BME280;33753;52.912;-7.342;2022-07-04T09:32:50;100938.50;;;19.42;100.00
47985;BME280;33753;52.912;-7.342;2022-07-04T09:35:20;100931.91;;;19.50;100.00
47985;BME280;33753;52.912;-7.342;2022-07-04T09:37:49;100942.00;;;19.11;100.00
47985;BME280;33753;52.912;-7.342;2022-07-04T09:40:22;100929.94;;;19.25;100.00
47985;BME280;33753;52.912;-7.342;2022-07-04T09:42:51;100935.63;;;19.24;100.00
47985;BME280;33753;52.912;-7.342;2022-07-04T09:45:20;100941.03;;;19.44;100.00
47985;BME280;33753;52.912;-7.342;2022-07-04T09:47:54;100936.13;;;19.52;100.00
47985;BME280;33753;52.912;-7.342;2022-07-04T09:50:26;100931.63;;;19.65;100.00
47985;BME280;33753;52.912;-7.342;2022-07-04T09:52:59;100942.03;;;19.95;100.00
47985;BME280;33753;52.912;-7.342;2022-07-04T09:55:32;100941.94;;;20.08;100.00
47985;BME280;33753;52.912;-7.342;2022-07-04T09:58:02;100938.66;;;20.43;100.00
47985;BME280;33753;52.912;-7.342;2022-07-04T10:00:31;100942.81;;;20.52;100.00
47985;BME280;33753;52.912;-7.342;2022-07-04T10:03:15;100928.75;;;20.86;100.00
47985;BME280;33753;52.912;-7.342;2022-07-04T10:05:44;100931.03;;;20.89;100.00
47985;BME280;33753;52.912;-7.342;2022-07-04T10:08:20;100933.44;;;21.04;100.00
47985;BME280;33753;52.912;-7.342;2022-07-04T10:10:50;100934.78;;;20.95;100.00
47985;BME280;33753;52.912;-7.342;2022-07-04T10:13:24;100935.72;;;20.88;100.00
47985;BME280;33753;52.912;-7.342;2022-07-04T10:15:53;100944.94;;;20.50;100.00
47985;BME280;33753;52.912;-7.342;2022-07-04T10:18:21;100945.84;;;20.44;100.00
47985;BME280;33753;52.912;-7.342;2022-07-04T10:20:50;100943.09;;;20.44;100.00
47985;BME280;33753;52.912;-7.342;2022-07-04T10:23:19;100948.41;;;20.39;100.00
47985;BME280;33753;52.912;-7.342;2022-07-04T10:25:48;100946.75;;;20.38;100.00
47985;BME280;33753;52.912;-7.342;2022-07-04T10:28:18;100951.34;;;20.44;100.00
47985;BME280;33753;52.912;-7.342;2022-07-04T10:30:47;100950.47;;;20.25;100.00
47985;BME280;33753;52.912;-7.342;2022-07-04T10:33:16;100950.78;;;20.10;100.00
47985;BME280;33753;52.912;-7.342;2022-07-04T10:35:49;100959.13;;;19.97;100.00
47985;BME280;33753;52.912;-7.342;2022-07-04T10:38:23;100956.38;;;19.97;100.00
47985;BME280;33753;52.912;-7.342;2022-07-04T10:40:52;100965.78;;;19.69;100.00
47985;BME280;33753;52.912;-7.342;2022-07-04T10:49:16;100972.94;;;19.83;100.00
47985;BME280;33753;52.912;-7.342;2022-07-04T10:51:45;100976.41;;;19.97;100.00
47985;BME280;33753;52.912;-7.342;2022-07-04T10:54:14;100963.47;;;20.05;100.00
47985;BME280;33753;52.912;-7.342;2022-07-04T10:56:44;100964.41;;;20.24;100.00
47985;BME280;33753;52.912;-7.342;2022-07-04T10:59:13;100968.34;;;20.34;100.00
47985;BME280;33753;52.912;-7.342;2022-07-04T11:01:44;100974.69;;;20.35;100.00
47985;BME280;33753;52.912;-7.342;2022-07-04T11:05:01;100980.19;;;20.03;100.00
47985;BME280;33753;52.912;-7.342;2022-07-04T11:10:20;100988.06;;;19.93;100.00
47985;BME280;33753;52.912;-7.342;2022-07-04T11:13:06;100988.53;;;19.90;100.00
47985;BME280;33753;52.912;-7.342;2022-07-04T11:18:22;100995.38;;;19.67;100.00
47985;BME280;33753;52.912;-7.342;2022-07-04T11:20:51;100993.38;;;19.42;100.00
47985;BME280;33753;52.912;-7.342;2022-07-04T11:23:20;100999.13;;;19.73;100.00
47985;BME280;33753;52.912;-7.342;2022-07-04T11:25:49;100995.56;;;19.72;100.00
47985;BME280;33753;52.912;-7.342;2022-07-04T11:28:17;100992.28;;;19.95;100.00
47985;BME280;33753;52.912;-7.342;2022-07-04T11:31:07;100995.63;;;20.04;100.00
47985;BME280;33753;52.912;-7.342;2022-07-04T11:33:37;100985.53;;;19.98;100.00
47985;BME280;33753;52.912;-7.342;2022-07-04T11:36:08;100989.84;;;20.37;100.00
47985;BME280;33753;52.912;-7.342;2022-07-04T11:38:43;100996.94;;;20.77;100.00
47985;BME280;33753;52.912;-7.342;2022-07-04T11:41:11;100992.41;;;21.08;100.00
47985;BME280;33753;52.912;-7.342;2022-07-04T11:43:57;100997.28;;;21.24;100.00
47985;BME280;33753;52.912;-7.342;2022-07-04T11:46:42;101004.03;;;21.29;100.00
47985;BME280;33753;52.912;-7.342;2022-07-04T11:49:11;100989.34;;;20.98;100.00
47985;BME280;33753;52.912;-7.342;2022-07-04T11:51:42;100993.25;;;21.27;100.00
47985;BME280;33753;52.912;-7.342;2022-07-04T11:54:11;100998.00;;;21.20;100.00
47985;BME280;33753;52.912;-7.342;2022-07-04T11:57:09;100994.63;;;21.18;100.00
47985;BME280;33753;52.912;-7.342;2022-07-04T11:59:37;100994.69;;;21.30;100.00
47985;BME280;33753;52.912;-7.342;2022-07-04T12:02:09;100992.25;;;21.40;100.00
47985;BME280;33753;52.912;-7.342;2022-07-04T12:04:38;100995.16;;;21.45;100.00
47985;BME280;33753;52.912;-7.342;2022-07-04T12:07:12;101000.31;;;21.72;100.00
47985;BME280;33753;52.912;-7.342;2022-07-04T12:09:42;101003.69;;;21.74;100.00
47985;BME280;33753;52.912;-7.342;2022-07-04T12:12:11;100998.84;;;21.88;100.00
47985;BME280;33753;52.912;-7.342;2022-07-04T12:14:40;101007.13;;;21.88;100.00
47985;BME280;33753;52.912;-7.342;2022-07-04T12:17:28;100995.13;;;21.82;100.00
47985;BME280;33753;52.912;-7.342;2022-07-04T12:19:58;100996.81;;;21.65;100.00
47985;BME280;33753;52.912;-7.342;2022-07-04T12:22:41;100993.78;;;21.85;100.00
47985;BME280;33753;52.912;-7.342;2022-07-04T12:25:20;101001.97;;;21.61;100.00
47985;BME280;33753;52.912;-7.342;2022-07-04T12:27:56;100994.56;;;21.92;100.00
47985;BME280;33753;52.912;-7.342;2022-07-04T12:30:25;101000.38;;;22.14;100.00
47985;BME280;33753;52.912;-7.342;2022-07-04T12:32:57;100993.22;;;22.25;100.00
47985;BME280;33753;52.912;-7.342;2022-07-04T12:35:39;101003.94;;;22.15;100.00
47985;BME280;33753;52.912;-7.342;2022-07-04T12:38:11;101003.22;;;21.77;100.00
47985;BME280;33753;52.912;-7.342;2022-07-04T12:40:50;101001.84;;;21.86;100.00
47985;BME280;33753;52.912;-7.342;2022-07-04T12:43:21;101003.03;;;21.90;100.00
47985;BME280;33753;52.912;-7.342;2022-07-04T12:46:30;100999.13;;;21.98;100.00
47985;BME280;33753;52.912;-7.342;2022-07-04T12:49:06;101001.00;;;21.86;100.00
47985;BME280;33753;52.912;-7.342;2022-07-04T12:51:35;100999.41;;;22.08;100.00
47985;BME280;33753;52.912;-7.342;2022-07-04T12:54:09;101001.94;;;22.22;100.00
47985;BME280;33753;52.912;-7.342;2022-07-04T12:56:41;101002.22;;;22.02;100.00
47985;BME280;33753;52.912;-7.342;2022-07-04T12:59:11;101000.56;;;22.01;100.00
47985;BME280;33753;52.912;-7.342;2022-07-04T13:01:43;101004.72;;;21.91;100.00